ADDS METAR Data INFO
IDs: Format: Raw Decoded Include TAF

Data at: 0502 UTC 23 May 2017

KLVJ 230453Z AUTO 02007KT 10SM OVC012 22/18 A2988 RMK AO2 SLP118 T02220183
KLVJ 230353Z AUTO 03007KT 10SM OVC011 22/18 A2989 RMK AO2 SLP120 T02220183
KLVJ 230253Z AUTO 01007KT 10SM OVC011 23/19 A2986 RMK AO2 SLP112 T02330194 53003
KLVJ 230153Z AUTO 34007KT 10SM BKN011 24/20 A2986 RMK AO2 SLP110 T02390200
KLVJ 230053Z AUTO 35007KT 10SM SCT025 24/20 A2985 RMK AO2 SLP107 T02440200
KLVJ 222353Z AUTO 34006KT 10SM CLR 27/21 A2985 RMK AO2 SLP108 60005 T02670206 10289 20233 58009
KLVJ 222301Z AUTO 01008KT 10SM FEW016 SCT024 SCT040 27/21 A2986 RMK AO2 LTG DSNT S T02670206
KLVJ 222253Z AUTO 35007KT 10SM FEW014 BKN024 BKN039 27/21 A2987 RMK AO2 LTG DSNT S SLP113 T02670206
KLVJ 222250Z AUTO 35007KT 10SM SCT014 BKN024 BKN039 27/21 A2987 RMK AO2 LTG DSNT S
KLVJ 222224Z AUTO 02009KT 10SM BKN014 OVC023 26/21 A2988 RMK AO2 T02610211
KLVJ 222153Z AUTO 02007KT 10SM BKN022 OVC029 25/21 A2988 RMK AO2 RAE2054 SLP118 P0000 T02500211
KLVJ 222102Z AUTO 02009KT 10SM FEW015 BKN024 BKN060 24/21 A2989 RMK AO2 RAE2054 P0000 T02390211
KLVJ 222053Z AUTO 03009KT 10SM -RA SCT021 BKN055 24/21 A2990 RMK AO2 WSHFT 2010 RAB19 SLP123 P0005 60005 T02390211 56018
KLVJ 222030Z AUTO 02010KT 7SM -RA FEW016 BKN024 OVC055 24/21 A2991 RMK AO2 WSHFT 2010 RAB19 P0001 T02390211
KLVJ 222018Z AUTO 01013G16KT 9SM FEW015 BKN024 OVC060 24/20 A2990 RMK AO2 T02440200
KLVJ 221953Z AUTO 24006KT 10SM FEW028 BKN065 29/22 A2990 RMK AO2 SLP124 T02890217
KLVJ 221935Z AUTO 20008KT 10SM SCT024 BKN033 OVC065 28/21 A2991 RMK AO2 T02780211
KLVJ 221853Z AUTO 16009KT 10SM BKN016 BKN020 OVC025 27/22 A2993 RMK AO2 SLP134 T02720222
KLVJ 221823Z AUTO 16007KT 10SM BKN017 27/22 A2994 RMK AO2 T02670222
KLVJ 221753Z AUTO 15011KT 10SM FEW028 26/22 A2995 RMK AO2 RAE02 SLP141 P0000 60093 T02610222 10261 20228 58012
KLVJ 221700Z AUTO 14014G20KT 10SM -RA FEW006 SCT033 BKN110 24/22 A2995 RMK AO2 P0000 T02440222
KLVJ 221653Z AUTO 17009G21KT 9SM -RA SCT033 BKN100 BKN110 24/22 A2996 RMK AO2 PK WND 15026/1607 SLP145 P0015 T02390217
KLVJ 221622Z AUTO 13017G25KT 3SM -RA BR FEW055 BKN095 OVC120 23/21 A2996 RMK AO2 PK WND 15026/1607 LTG DSNT SE P0013 T02280211
KLVJ 221614Z AUTO 14020G26KT 1 1/4SM +RA BR SCT055 BKN075 OVC090 23/22 A2996 RMK AO2 PK WND 15026/1607 P0012 T02330217
KLVJ 221553Z AUTO 18011G18KT 2SM +RA BR FEW012 BKN050 OVC090 24/22 A2998 RMK AO2 SLP150 P0025 T02390217
KLVJ 221544Z AUTO 20008KT 2 1/2SM +RA BR FEW007 BKN049 OVC100 24/22 A2998 RMK AO2 P0021 T02390222
KLVJ 221524Z AUTO 16011KT 3SM RA BR SCT008 BKN043 OVC090 24/23 A2998 RMK AO2 P0012 T02440228
KLVJ 221520Z AUTO 17012G19KT 2SM RA BR BKN008 BKN040 OVC095 24/23 A2998 RMK AO2 P0011 T02440228
KLVJ 221509Z AUTO 17010G17KT 2 1/2SM +RA BR BKN010 BKN046 OVC085 24/23 A2999 RMK AO2 P0005 T02440228
KLVJ 221453Z AUTO 16009KT 4SM RA BR BKN008 BKN019 OVC100 24/23 A2998 RMK AO2 SLP152 P0013 60053 T02440228 55000
KLVJ 221450Z AUTO 16008KT 4SM -RA BR SCT008 BKN019 OVC110 24/23 A2998 RMK AO2 P0012
KLVJ 221444Z AUTO 17008KT 4SM RA BR BKN009 BKN050 OVC100 24/23 A2998 RMK AO2 P0011 T02440228
KLVJ 221400Z AUTO 14009KT 4SM RA BR SCT011 BKN039 OVC100 24/22 A2998 RMK AO2 P0001 T02440222
KLVJ 221353Z AUTO VRB06KT 2SM +RA BR BKN007 BKN019 OVC100 24/22 A2998 RMK AO2 SLP152 P0024 T02440222
KLVJ 221346Z AUTO 13004KT 1 1/2SM +RA BR BKN008 BKN012 OVC032 24/22 A2999 RMK AO2 P0021 T02440222
KLVJ 221327Z AUTO 00000KT 2 1/2SM RA BR BKN008 BKN095 24/22 A2999 RMK AO2 P0008 T02390222
KLVJ 221304Z AUTO 13008KT 5SM RA BR SCT012 SCT050 BKN075 24/22 A2997 RMK AO2 P0002 T02390217
KLVJ 221253Z AUTO 14008KT 5SM RA BR BKN010 BKN044 OVC095 24/22 A2998 RMK AO2 SLP151 P0016 T02390217
KLVJ 221204Z AUTO 12011KT 3SM +RA BR OVC010 23/22 A2997 RMK AO2 LTG DSNT N AND E P0007 T02330217
KLVJ 221153Z AUTO 11008KT 3SM VCTS +RA BR BKN008 BKN012 OVC021 23/21 A2998 RMK AO2 LTG DSNT NW-NE SLP152 P0059 60086 70086 T02330211 10256 20233 53003
KLVJ 221151Z AUTO 11010KT 3SM VCTS +RA BR BKN010 OVC021 23/22 A2998 RMK AO2 LTG DSNT NW-NE P0058
KLVJ 221148Z AUTO 11011G19KT 2SM +RA BR BKN010 OVC021 23/22 A2998 RMK AO2 LTG DSNT NW-NE P0056
KLVJ 221129Z AUTO 14017KT 1 1/4SM +RA BR FEW013 SCT018 OVC022 24/22 A2997 RMK AO2 LTG DSNT NE AND S AND NW P0032 T02390217
KLVJ 221120Z AUTO 14013G21KT 2 1/2SM +RA BR BKN013 BKN020 OVC026 24/22 A2997 RMK AO2 LTG DSNT W-NE P0010 T02390217
KLVJ 221056Z AUTO 09005KT 3SM VCTS RA OVC013 24/21 A2996 RMK AO2 LTG DSNT W P0000 T02390211
KLVJ 221053Z AUTO 09006KT 2 1/2SM +RA OVC013 24/21 A2997 RMK AO2 LTG DSNT W RAB39 SLP146 P0026 T02390211
KLVJ 221047Z AUTO 10008KT 1 3/4SM +RA OVC015 24/21 A2997 RMK AO2 LTG DSNT SW AND W RAB39 P0023
KLVJ 220953Z AUTO 11006KT 10SM BKN018 BKN060 26/22 A2996 RMK AO2 SLP145 T02560217
KLVJ 220924Z AUTO 13009KT 10SM BKN017 BKN055 OVC065 26/21 A2998 RMK AO2 T02560211
KLVJ 220915Z AUTO 12008KT 10SM SCT017 BKN055 OVC065 26/21 A2998 RMK AO2 T02560211
KLVJ 220853Z AUTO 12010G19KT 10SM BKN016 BKN022 OVC030 25/21 A2998 RMK AO2 SLP149 60001 T02500211 58017
KLVJ 220819Z AUTO 12009KT 10SM OVC016 24/22 A2999 RMK AO2 T02440217
KLVJ 220753Z AUTO 10014G19KT 9SM OVC013 24/22 A3000 RMK AO2 RAB33E52 SLP157 P0001 T02440222
KLVJ 220739Z AUTO 09010KT 8SM -RA BKN011 OVC020 25/22 A3001 RMK AO2 RAB33 P0000 T02500217
KLVJ 220722Z AUTO 08009KT 10SM SCT013 OVC022 25/21 A3002 RMK AO2 T02500211
KLVJ 220713Z AUTO 07007KT 10SM BKN014 BKN022 OVC041 25/21 A3002 RMK AO2 T02500211
KLVJ 220653Z AUTO 07007KT 10SM FEW014 BKN036 OVC070 25/21 A3002 RMK AO2 SLP165 T02500206
KLVJ 220553Z AUTO 06007KT 10SM SCT039 SCT049 BKN055 25/21 A3003 RMK AO2 SLP166 60000 T02500206 10256 20250 403170244 58002
KLVJ 220528Z AUTO 08010KT 10SM SCT024 SCT036 25/20 A3002 RMK AO2 PRESFR T02500200
KLVJ 220453Z AUTO 08011G18KT 10SM SCT014 OVC020 26/21 A3003 RMK AO2 SLP168 T02560211
KLVJ 220448Z AUTO 08009G17KT 10SM SCT011 OVC018 26/21 A3003 RMK AO2 LTG DSNT E
KLVJ 220353Z AUTO 06008G15KT 10SM BKN013 25/22 A3003 RMK AO2 SLP169 T02500217
KLVJ 220253Z AUTO 07009KT 10SM CLR 25/21 A3001 RMK AO2 SLP162 60000 T02500211 50007
KLVJ 220153Z AUTO 08006KT 10SM FEW110 25/22 A3003 RMK AO2 LTG DSNT N AND SW RAB05E14 SLP169 P0000 T02500217
KLVJ 220053Z AUTO 05006KT 10SM FEW013 SCT028 26/22 A3001 RMK AO2 LTG DSNT W AND NW SLP161 T02560222
KLVJ 220029Z AUTO 07006KT 10SM SCT026 BKN090 26/22 A3000 RMK AO2 LTG DSNT W AND NW T02560217
KLVJ 220002Z AUTO 06008KT 10SM VCTS BKN080 OVC090 26/22 A2998 RMK AO2 T02560217
KLVJ 212353Z AUTO 07008KT 10SM OVC080 25/22 A2999 RMK AO2 SLP155 60000 T02500217 10317 20250 55005
KLVJ 212335Z AUTO 08012G18KT 10SM FEW011 SCT060 OVC080 25/21 A2998 RMK AO2 T02500211
KLVJ 212315Z AUTO 08017G24KT 10SM SCT010 BKN019 BKN027 26/22 A2999 RMK AO2 LTG DSNT NE T02610222
KLVJ 212253Z AUTO 08010KT 10SM FEW027 SCT080 28/24 A2997 RMK AO2 LTG DSNT E RAE07 SLP149 P0000 T02830239
KLVJ 212223Z AUTO 08008KT 10SM SCT027 SCT034 OVC070 29/23 A2998 RMK AO2 RAE07 P0000 T02890233
KLVJ 212153Z AUTO 08008KT 10SM -RA BKN028 OVC039 30/23 A2998 RMK AO2 LTG DSNT E RAB23 SLP150 P0000 T03000228
KLVJ 212122Z AUTO 00000KT 10SM SCT029 SCT065 BKN100 31/22 A3000 RMK AO2 LTG DSNT E T03060222
KLVJ 212053Z AUTO 26003KT 10SM BKN028 31/22 A3001 RMK AO2 LTG DSNT W RAE1957 PRESRR SLP160 P0000 60000 T03060222 53004
KLVJ 212048Z AUTO 00000KT 10SM BKN029 31/22 A3000 RMK AO2 LTG DSNT W AND NW RAE1957 P0000
KLVJ 211953Z AUTO 15007KT 10SM -RA SCT030 31/22 A2996 RMK AO2 LTG DSNT NW RAB41 SLP145 P0000 T03110222
KLVJ 211922Z AUTO 17009G15KT 10SM FEW028 FEW055 31/22 A2997 RMK AO2 LTG DSNT NW T03110217
KLVJ 211907Z AUTO 15010KT 10SM VCTS FEW026 32/22 A2999 RMK AO2 LTG DSNT NW T03170222
KLVJ 211853Z AUTO 14013KT 10SM CLR 31/22 A2999 RMK AO2 LTG DSNT NW SLP156 T03060217
KLVJ 211753Z AUTO 14013KT 10SM FEW044 31/19 A3004 RMK AO2 LTG DSNT NE AND E RAE1657 SLP170 P0000 60000 T03060189 10311 20244 56004
KLVJ 211705Z AUTO 17006KT 10SM SCT022 BKN030 28/21 A3003 RMK AO2 LTG DSNT E RAE1657 P0000 T02830211


Page loaded:  05:02 UTC  |   10:02 PM Pacific  |   11:02 PM Mountain  |   12:02 AM Central  |   01:02 AM Eastern

 

ADVISORIES

FORECASTS

FORECASTS

OBSERVATIONS

USER TOOLS

ABOUT US